createdAt,value
2024-03-16T00:02:19.460Z,17.32
2024-03-16T00:04:46.215Z,17.32
2024-03-16T00:07:14.178Z,17.33
2024-03-16T00:09:42.028Z,17.30
2024-03-16T00:12:09.820Z,17.28
2024-03-16T00:14:37.554Z,17.28
2024-03-16T00:17:05.988Z,17.29
2024-03-16T00:19:33.804Z,17.30
2024-03-16T00:22:02.077Z,17.28
2024-03-16T00:24:31.190Z,17.31
2024-03-16T00:26:59.550Z,17.36
2024-03-16T00:29:27.394Z,17.43
2024-03-16T00:31:55.692Z,17.46
2024-03-16T00:34:24.806Z,17.48
2024-03-16T00:36:53.238Z,17.48
2024-03-16T00:39:24.588Z,17.45
2024-03-16T00:41:52.764Z,17.44
2024-03-16T00:44:20.627Z,17.50
2024-03-16T00:46:48.614Z,17.55
2024-03-16T00:49:16.405Z,17.57
2024-03-16T00:51:44.207Z,17.57
2024-03-16T00:54:12.796Z,17.55
2024-03-16T00:56:40.680Z,17.48
2024-03-16T00:59:09.046Z,17.47
2024-03-16T01:01:36.816Z,17.45
2024-03-16T01:04:05.327Z,17.43
2024-03-16T01:06:33.121Z,17.44
2024-03-16T01:09:01.090Z,17.44
2024-03-16T01:11:28.939Z,17.46
2024-03-16T01:13:56.727Z,17.52
2024-03-16T01:16:24.516Z,17.51
2024-03-16T01:18:52.300Z,17.49
2024-03-16T01:21:20.140Z,17.55
2024-03-16T01:23:47.991Z,17.56
2024-03-16T01:26:15.806Z,17.51
2024-03-16T01:28:43.555Z,17.52
2024-03-16T01:31:14.458Z,17.54
2024-03-16T01:33:42.886Z,17.62
2024-03-16T01:36:10.695Z,17.62
2024-03-16T01:38:38.451Z,17.65
2024-03-16T01:41:06.656Z,17.65
2024-03-16T01:43:34.677Z,17.65
2024-03-16T01:46:02.453Z,17.64
2024-03-16T01:48:30.567Z,17.62
2024-03-16T01:50:58.311Z,17.60
2024-03-16T01:53:26.116Z,17.61
2024-03-16T01:55:53.876Z,17.59
2024-03-16T01:58:21.658Z,17.55
2024-03-16T02:00:49.592Z,17.55
2024-03-16T02:03:17.407Z,17.53
2024-03-16T02:05:47.317Z,17.58
2024-03-16T02:08:16.814Z,17.62
2024-03-16T02:10:44.590Z,17.57
2024-03-16T02:13:12.575Z,17.58
2024-03-16T02:15:40.556Z,17.52
2024-03-16T02:18:10.856Z,17.53
2024-03-16T02:20:38.756Z,17.52
2024-03-16T02:23:06.539Z,17.47
2024-03-16T02:25:34.464Z,17.51
2024-03-16T02:28:02.268Z,17.51
2024-03-16T02:30:30.110Z,17.56
2024-03-16T02:32:57.893Z,17.61
2024-03-16T02:35:25.677Z,17.55
2024-03-16T02:37:53.507Z,17.58
2024-03-16T02:40:22.026Z,17.62
2024-03-16T02:42:49.785Z,17.61
2024-03-16T02:45:17.670Z,17.65
2024-03-16T02:47:45.533Z,17.68
2024-03-16T02:50:13.947Z,17.76
2024-03-16T02:52:41.694Z,17.80
2024-03-16T02:55:10.449Z,17.82
2024-03-16T02:57:38.344Z,17.82
2024-03-16T03:00:12.339Z,17.75
2024-03-16T03:02:40.303Z,17.95
2024-03-16T03:05:12.063Z,17.98
2024-03-16T03:07:40.178Z,17.95
2024-03-16T03:10:09.562Z,17.89
2024-03-16T03:12:37.616Z,17.84
2024-03-16T03:15:05.758Z,17.83
2024-03-16T03:17:33.782Z,17.82
2024-03-16T03:20:01.645Z,17.85
2024-03-16T03:22:29.564Z,17.84
2024-03-16T03:24:57.346Z,17.84
2024-03-16T03:27:25.794Z,17.80
2024-03-16T03:29:53.565Z,17.80
2024-03-16T03:32:21.272Z,17.79
2024-03-16T03:34:49.038Z,17.72
2024-03-16T03:37:16.811Z,17.71
2024-03-16T03:39:44.700Z,17.71
2024-03-16T03:42:12.654Z,17.77
2024-03-16T03:44:51.059Z,17.75
2024-03-16T03:47:19.042Z,17.79
2024-03-16T03:49:51.880Z,17.72
2024-03-16T03:52:19.891Z,17.73
2024-03-16T03:54:47.777Z,17.69
2024-03-16T03:57:15.574Z,17.71
2024-03-16T03:59:43.823Z,17.70
2024-03-16T04:02:11.581Z,17.68
2024-03-16T04:04:41.481Z,17.73
2024-03-16T04:07:10.094Z,17.75
2024-03-16T04:09:38.098Z,17.69
2024-03-16T04:12:06.075Z,17.74
2024-03-16T04:14:33.819Z,17.72
2024-03-16T04:17:01.517Z,17.80
2024-03-16T04:19:29.266Z,17.87
2024-03-16T04:21:57.238Z,17.86
2024-03-16T04:24:25.107Z,17.90
2024-03-16T04:26:52.860Z,17.88
2024-03-16T04:29:20.626Z,17.86
2024-03-16T04:31:48.331Z,17.90
2024-03-16T04:34:16.245Z,17.88
2024-03-16T04:36:44.065Z,17.80
2024-03-16T04:39:11.917Z,17.82
2024-03-16T04:41:39.694Z,17.86
2024-03-16T04:44:07.453Z,17.80
2024-03-16T04:46:35.262Z,17.83
2024-03-16T04:49:03.045Z,17.84
2024-03-16T04:51:31.346Z,17.85
2024-03-16T04:53:59.247Z,17.82
2024-03-16T04:56:26.918Z,17.82
2024-03-16T04:58:54.802Z,17.80
2024-03-16T05:01:22.777Z,17.79
2024-03-16T05:03:51.206Z,17.78
2024-03-16T05:06:19.023Z,17.77
2024-03-16T05:08:46.739Z,17.80
2024-03-16T05:11:14.528Z,17.78
2024-03-16T05:13:42.965Z,17.78
2024-03-16T05:16:10.734Z,17.80
2024-03-16T05:18:38.487Z,17.78
2024-03-16T05:21:07.631Z,17.78
2024-03-16T05:23:35.371Z,17.76
2024-03-16T05:26:03.183Z,17.76
2024-03-16T05:28:30.978Z,17.72
2024-03-16T05:30:57.849Z,17.72
2024-03-16T05:33:25.669Z,17.73
2024-03-16T05:35:53.463Z,17.72
2024-03-16T05:38:21.540Z,17.76
2024-03-16T05:40:49.316Z,17.73
2024-03-16T05:43:17.200Z,17.70
2024-03-16T05:45:45.003Z,17.68
2024-03-16T05:48:13.490Z,17.68
2024-03-16T05:50:41.205Z,17.69
2024-03-16T05:53:08.936Z,17.72
2024-03-16T05:55:36.648Z,17.70
2024-03-16T05:58:05.050Z,17.70
2024-03-16T06:00:33.935Z,17.68
2024-03-16T06:03:01.743Z,17.65
2024-03-16T06:05:29.541Z,17.59
2024-03-16T06:07:57.264Z,17.56
2024-03-16T06:10:25.189Z,17.59
2024-03-16T06:12:53.042Z,17.63
2024-03-16T06:15:20.843Z,17.65
2024-03-16T06:17:48.588Z,17.68
2024-03-16T06:20:16.487Z,17.69
2024-03-16T06:22:45.774Z,17.70
2024-03-16T06:25:14.111Z,17.68
2024-03-16T06:27:50.409Z,17.69
2024-03-16T06:30:18.290Z,17.68
2024-03-16T06:33:06.696Z,17.68
2024-03-16T06:35:34.654Z,17.67
2024-03-16T06:38:02.480Z,17.66
2024-03-16T06:40:30.651Z,17.63
2024-03-16T06:42:58.440Z,17.66
2024-03-16T06:45:26.234Z,17.64
2024-03-16T06:47:53.978Z,17.63
2024-03-16T06:50:22.363Z,17.68
2024-03-16T06:52:50.291Z,17.70
2024-03-16T06:55:19.370Z,17.70
2024-03-16T06:57:47.523Z,17.68
2024-03-16T07:00:15.838Z,17.67
2024-03-16T07:02:43.660Z,17.59
2024-03-16T07:05:12.285Z,17.56
2024-03-16T07:07:41.040Z,17.49
2024-03-16T07:10:09.391Z,17.42
2024-03-16T07:12:37.367Z,17.35
2024-03-16T07:15:07.016Z,17.34
2024-03-16T07:17:34.785Z,17.44
2024-03-16T07:20:02.607Z,17.46
2024-03-16T07:22:30.389Z,17.43
2024-03-16T07:24:57.172Z,17.43
2024-03-16T07:27:24.907Z,17.44
2024-03-16T07:29:52.609Z,17.47
2024-03-16T07:32:20.328Z,17.48
2024-03-16T07:34:48.060Z,17.48
2024-03-16T07:37:17.849Z,17.43
2024-03-16T07:39:45.697Z,17.40
2024-03-16T07:42:13.420Z,17.40
2024-03-16T07:44:41.700Z,17.44
2024-03-16T07:47:09.710Z,17.53
2024-03-16T07:49:37.622Z,17.54
2024-03-16T07:52:05.738Z,17.56
2024-03-16T07:54:33.485Z,17.50
2024-03-16T07:57:02.075Z,17.49
2024-03-16T07:59:29.800Z,17.56
2024-03-16T08:01:57.864Z,17.51
2024-03-16T08:04:25.567Z,17.56
2024-03-16T08:06:53.342Z,17.62
2024-03-16T08:09:24.132Z,17.64
2024-03-16T08:11:52.627Z,17.61
2024-03-16T08:14:21.574Z,17.58
2024-03-16T08:16:49.327Z,17.55
2024-03-16T08:19:18.003Z,17.49
2024-03-16T08:21:46.251Z,17.49
2024-03-16T08:24:14.109Z,17.53
2024-03-16T08:26:41.935Z,17.53
2024-03-16T08:29:09.723Z,17.49
2024-03-16T08:31:37.483Z,17.51
2024-03-16T08:34:05.532Z,17.53
2024-03-16T08:36:33.389Z,17.57
2024-03-16T08:39:04.066Z,17.58
2024-03-16T08:41:31.853Z,17.48
2024-03-16T08:43:59.607Z,17.48
2024-03-16T08:46:28.181Z,17.50
2024-03-16T08:48:56.216Z,17.57
2024-03-16T08:51:23.975Z,17.58
2024-03-16T08:53:51.696Z,17.58
2024-03-16T08:56:19.474Z,17.68
2024-03-16T08:58:47.643Z,17.65
2024-03-16T09:01:15.723Z,17.63
2024-03-16T09:03:43.538Z,17.71
2024-03-16T09:06:11.273Z,17.68
2024-03-16T09:08:39.044Z,17.70
2024-03-16T09:11:06.853Z,17.70
2024-03-16T09:13:35.489Z,17.68
2024-03-16T09:16:06.361Z,17.56
2024-03-16T09:18:34.729Z,17.62
2024-03-16T09:21:02.839Z,17.61
2024-03-16T09:23:30.815Z,17.62
2024-03-16T09:25:58.592Z,17.63
2024-03-16T09:28:26.446Z,17.68
2024-03-16T09:30:56.783Z,17.59
2024-03-16T09:33:25.429Z,17.62
2024-03-16T09:35:54.463Z,17.59
2024-03-16T09:38:24.062Z,17.60
2024-03-16T09:40:56.446Z,17.69
